sensor_id;sensor_type;location;lat;lon;timestamp;P1;durP1;ratioP1;P2;durP2;ratioP2
5127;SDS011;2582;48.770;9.190;2023-03-20T00:00:41;6.03;;;5.53;;
5127;SDS011;2582;48.770;9.190;2023-03-20T00:03:10;5.40;;;4.93;;
5127;SDS011;2582;48.770;9.190;2023-03-20T00:05:36;5.93;;;5.43;;
5127;SDS011;2582;48.770;9.190;2023-03-20T00:08:01;5.37;;;4.87;;
5127;SDS011;2582;48.770;9.190;2023-03-20T00:10:34;4.93;;;4.43;;
5127;SDS011;2582;48.770;9.190;2023-03-20T00:13:02;5.80;;;5.30;;
5127;SDS011;2582;48.770;9.190;2023-03-20T00:15:30;8.10;;;5.80;;
5127;SDS011;2582;48.770;9.190;2023-03-20T00:17:59;5.47;;;4.97;;
5127;SDS011;2582;48.770;9.190;2023-03-20T00:20:25;5.90;;;5.43;;
5127;SDS011;2582;48.770;9.190;2023-03-20T00:22:51;4.30;;;3.97;;
5127;SDS011;2582;48.770;9.190;2023-03-20T00:25:21;6.03;;;4.20;;
5127;SDS011;2582;48.770;9.190;2023-03-20T00:27:48;6.70;;;5.00;;
5127;SDS011;2582;48.770;9.190;2023-03-20T00:30:19;5.43;;;4.93;;
5127;SDS011;2582;48.770;9.190;2023-03-20T00:32:48;5.53;;;5.03;;
5127;SDS011;2582;48.770;9.190;2023-03-20T00:35:18;4.40;;;3.90;;
5127;SDS011;2582;48.770;9.190;2023-03-20T00:37:47;4.30;;;3.80;;
5127;SDS011;2582;48.770;9.190;2023-03-20T00:40:12;5.80;;;5.33;;
5127;SDS011;2582;48.770;9.190;2023-03-20T00:42:39;4.13;;;3.83;;
5127;SDS011;2582;48.770;9.190;2023-03-20T00:45:05;4.17;;;3.83;;
5127;SDS011;2582;48.770;9.190;2023-03-20T00:47:34;4.67;;;3.83;;
5127;SDS011;2582;48.770;9.190;2023-03-20T00:50:05;4.60;;;4.27;;
5127;SDS011;2582;48.770;9.190;2023-03-20T00:52:39;4.50;;;3.53;;
5127;SDS011;2582;48.770;9.190;2023-03-20T00:55:04;3.73;;;3.43;;
5127;SDS011;2582;48.770;9.190;2023-03-20T00:57:33;4.37;;;3.90;;
5127;SDS011;2582;48.770;9.190;2023-03-20T01:02:45;4.10;;;3.30;;
5127;SDS011;2582;48.770;9.190;2023-03-20T01:05:11;3.43;;;3.20;;
5127;SDS011;2582;48.770;9.190;2023-03-20T01:07:37;4.33;;;4.00;;
5127;SDS011;2582;48.770;9.190;2023-03-20T01:10:04;3.80;;;3.23;;
5127;SDS011;2582;48.770;9.190;2023-03-20T01:12:30;4.43;;;3.30;;
5127;SDS011;2582;48.770;9.190;2023-03-20T01:14:56;3.53;;;3.23;;
5127;SDS011;2582;48.770;9.190;2023-03-20T01:17:23;3.87;;;3.57;;
5127;SDS011;2582;48.770;9.190;2023-03-20T01:19:50;4.50;;;3.00;;
5127;SDS011;2582;48.770;9.190;2023-03-20T01:22:17;3.30;;;3.07;;
5127;SDS011;2582;48.770;9.190;2023-03-20T01:24:43;2.63;;;2.43;;
5127;SDS011;2582;48.770;9.190;2023-03-20T01:27:15;2.83;;;2.63;;
5127;SDS011;2582;48.770;9.190;2023-03-20T01:29:43;3.53;;;3.23;;
5127;SDS011;2582;48.770;9.190;2023-03-20T01:32:11;3.60;;;3.30;;
5127;SDS011;2582;48.770;9.190;2023-03-20T01:34:41;3.73;;;3.43;;
5127;SDS011;2582;48.770;9.190;2023-03-20T01:37:11;4.50;;;3.17;;
5127;SDS011;2582;48.770;9.190;2023-03-20T01:39:40;3.47;;;3.17;;
5127;SDS011;2582;48.770;9.190;2023-03-20T01:42:06;3.73;;;3.40;;
5127;SDS011;2582;48.770;9.190;2023-03-20T01:44:33;4.13;;;3.83;;
5127;SDS011;2582;48.770;9.190;2023-03-20T01:47:00;3.23;;;3.00;;
5127;SDS011;2582;48.770;9.190;2023-03-20T01:51:53;4.23;;;3.30;;
5127;SDS011;2582;48.770;9.190;2023-03-20T02:01:58;2.90;;;2.70;;
5127;SDS011;2582;48.770;9.190;2023-03-20T02:04:29;3.30;;;3.00;;
5127;SDS011;2582;48.770;9.190;2023-03-20T02:06:58;3.10;;;2.90;;
5127;SDS011;2582;48.770;9.190;2023-03-20T02:09:24;2.33;;;2.13;;
5127;SDS011;2582;48.770;9.190;2023-03-20T02:11:50;2.80;;;2.60;;
5127;SDS011;2582;48.770;9.190;2023-03-20T02:14:17;4.00;;;2.73;;
5127;SDS011;2582;48.770;9.190;2023-03-20T02:16:45;3.13;;;2.93;;
5127;SDS011;2582;48.770;9.190;2023-03-20T02:19:57;3.40;;;3.17;;
5127;SDS011;2582;48.770;9.190;2023-03-20T02:22:22;2.53;;;2.33;;
5127;SDS011;2582;48.770;9.190;2023-03-20T02:49:05;2.83;;;1.90;;
5127;SDS011;2582;48.770;9.190;2023-03-20T02:52:04;1.40;;;1.30;;
5127;SDS011;2582;48.770;9.190;2023-03-20T02:54:43;1.40;;;1.20;;
5127;SDS011;2582;48.770;9.190;2023-03-20T03:00:29;1.20;;;1.10;;
5127;SDS011;2582;48.770;9.190;2023-03-20T03:05:41;1.40;;;1.30;;
5127;SDS011;2582;48.770;9.190;2023-03-20T03:08:15;1.30;;;0.90;;
5127;SDS011;2582;48.770;9.190;2023-03-20T03:10:46;1.30;;;1.00;;
5127;SDS011;2582;48.770;9.190;2023-03-20T03:13:18;1.30;;;1.20;;
5127;SDS011;2582;48.770;9.190;2023-03-20T03:15:50;1.50;;;1.00;;
5127;SDS011;2582;48.770;9.190;2023-03-20T03:18:19;1.43;;;1.30;;
5127;SDS011;2582;48.770;9.190;2023-03-20T03:20:49;3.67;;;0.90;;
5127;SDS011;2582;48.770;9.190;2023-03-20T03:23:26;1.10;;;1.00;;
5127;SDS011;2582;48.770;9.190;2023-03-20T03:25:55;2.63;;;1.30;;
5127;SDS011;2582;48.770;9.190;2023-03-20T03:28:33;1.23;;;1.13;;
5127;SDS011;2582;48.770;9.190;2023-03-20T03:31:06;2.30;;;0.90;;
5127;SDS011;2582;48.770;9.190;2023-03-20T03:33:34;1.60;;;1.03;;
5127;SDS011;2582;48.770;9.190;2023-03-20T03:36:06;1.10;;;1.00;;
5127;SDS011;2582;48.770;9.190;2023-03-20T03:41:24;1.27;;;1.13;;
5127;SDS011;2582;48.770;9.190;2023-03-20T03:44:02;1.30;;;1.10;;
5127;SDS011;2582;48.770;9.190;2023-03-20T03:47:10;1.10;;;1.00;;
5127;SDS011;2582;48.770;9.190;2023-03-20T03:49:39;2.80;;;1.50;;
5127;SDS011;2582;48.770;9.190;2023-03-20T03:52:10;1.13;;;0.93;;
5127;SDS011;2582;48.770;9.190;2023-03-20T03:57:20;4.07;;;0.80;;
5127;SDS011;2582;48.770;9.190;2023-03-20T03:59:51;0.70;;;0.70;;
5127;SDS011;2582;48.770;9.190;2023-03-20T04:02:17;1.10;;;0.83;;
5127;SDS011;2582;48.770;9.190;2023-03-20T04:04:46;1.30;;;0.70;;
5127;SDS011;2582;48.770;9.190;2023-03-20T04:07:16;1.10;;;1.00;;
5127;SDS011;2582;48.770;9.190;2023-03-20T04:09:41;1.00;;;0.90;;
5127;SDS011;2582;48.770;9.190;2023-03-20T04:14:57;0.90;;;0.70;;
5127;SDS011;2582;48.770;9.190;2023-03-20T04:17:23;1.23;;;0.83;;
5127;SDS011;2582;48.770;9.190;2023-03-20T04:19:49;0.90;;;0.80;;
5127;SDS011;2582;48.770;9.190;2023-03-20T04:22:15;1.17;;;0.83;;
5127;SDS011;2582;48.770;9.190;2023-03-20T04:24:40;2.50;;;1.27;;
5127;SDS011;2582;48.770;9.190;2023-03-20T04:27:06;1.47;;;0.97;;
5127;SDS011;2582;48.770;9.190;2023-03-20T04:29:31;1.97;;;0.80;;
5127;SDS011;2582;48.770;9.190;2023-03-20T04:31:57;1.67;;;1.00;;
5127;SDS011;2582;48.770;9.190;2023-03-20T04:34:23;2.00;;;0.80;;
5127;SDS011;2582;48.770;9.190;2023-03-20T04:36:49;0.93;;;0.77;;
5127;SDS011;2582;48.770;9.190;2023-03-20T04:39:15;0.70;;;0.63;;
5127;SDS011;2582;48.770;9.190;2023-03-20T04:41:41;1.10;;;0.80;;
5127;SDS011;2582;48.770;9.190;2023-03-20T04:44:06;1.17;;;1.07;;
5127;SDS011;2582;48.770;9.190;2023-03-20T04:46:32;0.70;;;0.60;;
5127;SDS011;2582;48.770;9.190;2023-03-20T04:48:58;0.80;;;0.70;;
5127;SDS011;2582;48.770;9.190;2023-03-20T04:51:23;1.20;;;0.87;;
5127;SDS011;2582;48.770;9.190;2023-03-20T04:53:49;1.83;;;0.90;;
5127;SDS011;2582;48.770;9.190;2023-03-20T04:56:15;2.13;;;0.80;;
5127;SDS011;2582;48.770;9.190;2023-03-20T04:58:40;0.83;;;0.83;;
5127;SDS011;2582;48.770;9.190;2023-03-20T05:01:06;1.13;;;1.03;;
5127;SDS011;2582;48.770;9.190;2023-03-20T05:03:31;1.37;;;0.97;;
5127;SDS011;2582;48.770;9.190;2023-03-20T05:05:57;1.17;;;0.90;;
5127;SDS011;2582;48.770;9.190;2023-03-20T05:08:23;1.00;;;0.80;;
5127;SDS011;2582;48.770;9.190;2023-03-20T05:10:49;1.03;;;0.93;;
5127;SDS011;2582;48.770;9.190;2023-03-20T05:13:15;1.00;;;0.90;;
5127;SDS011;2582;48.770;9.190;2023-03-20T05:15:41;1.40;;;1.20;;
5127;SDS011;2582;48.770;9.190;2023-03-20T05:18:07;3.70;;;1.23;;
5127;SDS011;2582;48.770;9.190;2023-03-20T05:20:34;1.70;;;1.20;;
5127;SDS011;2582;48.770;9.190;2023-03-20T05:23:00;1.67;;;0.97;;
5127;SDS011;2582;48.770;9.190;2023-03-20T05:25:26;2.93;;;1.00;;
5127;SDS011;2582;48.770;9.190;2023-03-20T05:27:52;1.17;;;1.07;;
5127;SDS011;2582;48.770;9.190;2023-03-20T05:30:17;0.93;;;0.83;;
5127;SDS011;2582;48.770;9.190;2023-03-20T05:32:43;1.70;;;0.83;;
5127;SDS011;2582;48.770;9.190;2023-03-20T05:35:10;1.93;;;1.00;;
5127;SDS011;2582;48.770;9.190;2023-03-20T05:37:36;2.13;;;0.87;;
5127;SDS011;2582;48.770;9.190;2023-03-20T05:40:03;2.13;;;1.33;;
5127;SDS011;2582;48.770;9.190;2023-03-20T05:42:29;1.23;;;0.93;;
5127;SDS011;2582;48.770;9.190;2023-03-20T05:44:54;1.87;;;1.37;;
5127;SDS011;2582;48.770;9.190;2023-03-20T05:47:20;2.60;;;1.83;;
5127;SDS011;2582;48.770;9.190;2023-03-20T05:49:45;1.63;;;1.33;;
5127;SDS011;2582;48.770;9.190;2023-03-20T05:52:11;3.10;;;1.90;;
5127;SDS011;2582;48.770;9.190;2023-03-20T05:54:36;1.23;;;1.10;;
5127;SDS011;2582;48.770;9.190;2023-03-20T05:57:02;2.97;;;1.10;;
5127;SDS011;2582;48.770;9.190;2023-03-20T05:59:27;1.57;;;0.90;;
5127;SDS011;2582;48.770;9.190;2023-03-20T06:01:53;2.80;;;1.00;;
5127;SDS011;2582;48.770;9.190;2023-03-20T06:04:19;2.70;;;1.20;;
5127;SDS011;2582;48.770;9.190;2023-03-20T06:06:44;1.63;;;1.30;;
5127;SDS011;2582;48.770;9.190;2023-03-20T06:09:10;2.73;;;1.13;;
5127;SDS011;2582;48.770;9.190;2023-03-20T06:11:35;1.90;;;1.70;;
5127;SDS011;2582;48.770;9.190;2023-03-20T06:14:01;1.43;;;1.33;;
5127;SDS011;2582;48.770;9.190;2023-03-20T06:16:26;7.03;;;2.10;;
5127;SDS011;2582;48.770;9.190;2023-03-20T06:18:52;3.70;;;2.90;;
5127;SDS011;2582;48.770;9.190;2023-03-20T06:21:18;2.10;;;1.77;;
5127;SDS011;2582;48.770;9.190;2023-03-20T06:23:43;3.37;;;1.87;;
5127;SDS011;2582;48.770;9.190;2023-03-20T06:26:09;1.10;;;1.00;;
5127;SDS011;2582;48.770;9.190;2023-03-20T06:28:35;1.60;;;1.17;;
5127;SDS011;2582;48.770;9.190;2023-03-20T06:31:01;1.67;;;1.40;;
5127;SDS011;2582;48.770;9.190;2023-03-20T06:33:27;1.30;;;1.20;;
5127;SDS011;2582;48.770;9.190;2023-03-20T06:35:53;1.90;;;1.30;;
5127;SDS011;2582;48.770;9.190;2023-03-20T06:38:18;2.17;;;1.50;;
5127;SDS011;2582;48.770;9.190;2023-03-20T06:40:44;1.20;;;1.10;;
5127;SDS011;2582;48.770;9.190;2023-03-20T06:43:10;3.07;;;1.60;;
5127;SDS011;2582;48.770;9.190;2023-03-20T06:45:36;1.07;;;1.00;;
5127;SDS011;2582;48.770;9.190;2023-03-20T06:48:04;1.30;;;1.20;;
5127;SDS011;2582;48.770;9.190;2023-03-20T06:50:31;1.57;;;1.13;;
5127;SDS011;2582;48.770;9.190;2023-03-20T06:52:57;1.60;;;1.10;;
5127;SDS011;2582;48.770;9.190;2023-03-20T06:55:22;2.03;;;1.60;;
5127;SDS011;2582;48.770;9.190;2023-03-20T06:57:48;4.23;;;2.07;;
5127;SDS011;2582;48.770;9.190;2023-03-20T07:00:13;2.20;;;1.60;;
5127;SDS011;2582;48.770;9.190;2023-03-20T07:02:39;3.07;;;1.40;;
5127;SDS011;2582;48.770;9.190;2023-03-20T07:05:05;1.93;;;1.27;;
5127;SDS011;2582;48.770;9.190;2023-03-20T07:07:32;1.20;;;0.93;;
5127;SDS011;2582;48.770;9.190;2023-03-20T07:09:58;2.20;;;1.50;;
5127;SDS011;2582;48.770;9.190;2023-03-20T07:12:23;2.10;;;1.17;;
5127;SDS011;2582;48.770;9.190;2023-03-20T07:14:52;3.33;;;1.27;;
5127;SDS011;2582;48.770;9.190;2023-03-20T07:17:18;2.80;;;1.43;;
5127;SDS011;2582;48.770;9.190;2023-03-20T07:19:43;2.20;;;1.13;;
5127;SDS011;2582;48.770;9.190;2023-03-20T07:22:13;1.30;;;1.20;;
5127;SDS011;2582;48.770;9.190;2023-03-20T07:24:45;2.20;;;1.40;;
5127;SDS011;2582;48.770;9.190;2023-03-20T07:27:11;1.73;;;1.10;;
5127;SDS011;2582;48.770;9.190;2023-03-20T07:29:36;1.60;;;1.50;;
5127;SDS011;2582;48.770;9.190;2023-03-20T07:32:02;1.50;;;1.40;;
5127;SDS011;2582;48.770;9.190;2023-03-20T07:34:27;1.67;;;1.23;;
5127;SDS011;2582;48.770;9.190;2023-03-20T07:36:53;2.00;;;1.30;;
5127;SDS011;2582;48.770;9.190;2023-03-20T07:39:19;2.20;;;1.60;;
5127;SDS011;2582;48.770;9.190;2023-03-20T07:41:45;2.07;;;1.40;;
5127;SDS011;2582;48.770;9.190;2023-03-20T07:44:11;1.77;;;1.40;;
5127;SDS011;2582;48.770;9.190;2023-03-20T07:46:38;2.30;;;1.47;;
5127;SDS011;2582;48.770;9.190;2023-03-20T07:49:04;1.50;;;1.20;;
5127;SDS011;2582;48.770;9.190;2023-03-20T07:51:30;3.43;;;1.80;;
5127;SDS011;2582;48.770;9.190;2023-03-20T07:53:56;2.33;;;1.30;;
5127;SDS011;2582;48.770;9.190;2023-03-20T07:56:21;2.17;;;1.50;;
5127;SDS011;2582;48.770;9.190;2023-03-20T07:58:47;1.73;;;1.60;;
5127;SDS011;2582;48.770;9.190;2023-03-20T08:01:12;1.67;;;1.57;;
5127;SDS011;2582;48.770;9.190;2023-03-20T08:03:38;1.60;;;1.50;;
5127;SDS011;2582;48.770;9.190;2023-03-20T08:06:04;2.23;;;1.40;;
5127;SDS011;2582;48.770;9.190;2023-03-20T08:08:31;2.37;;;1.60;;
5127;SDS011;2582;48.770;9.190;2023-03-20T08:10:57;4.87;;;1.60;;
5127;SDS011;2582;48.770;9.190;2023-03-20T08:13:23;1.40;;;1.30;;
5127;SDS011;2582;48.770;9.190;2023-03-20T08:15:48;1.63;;;1.53;;
5127;SDS011;2582;48.770;9.190;2023-03-20T08:18:14;4.20;;;1.73;;
5127;SDS011;2582;48.770;9.190;2023-03-20T08:20:39;2.67;;;1.40;;
5127;SDS011;2582;48.770;9.190;2023-03-20T08:23:05;1.87;;;1.70;;
5127;SDS011;2582;48.770;9.190;2023-03-20T08:25:31;3.00;;;1.50;;
5127;SDS011;2582;48.770;9.190;2023-03-20T08:28:00;1.93;;;1.77;;
5127;SDS011;2582;48.770;9.190;2023-03-20T08:30:26;2.63;;;1.80;;
5127;SDS011;2582;48.770;9.190;2023-03-20T08:32:52;1.40;;;1.30;;
5127;SDS011;2582;48.770;9.190;2023-03-20T08:35:17;1.83;;;1.50;;
5127;SDS011;2582;48.770;9.190;2023-03-20T08:37:43;1.40;;;1.30;;
5127;SDS011;2582;48.770;9.190;2023-03-20T08:40:09;2.33;;;1.43;;
5127;SDS011;2582;48.770;9.190;2023-03-20T08:42:35;2.37;;;1.60;;
5127;SDS011;2582;48.770;9.190;2023-03-20T08:45:01;2.47;;;1.83;;
5127;SDS011;2582;48.770;9.190;2023-03-20T08:47:26;3.93;;;1.93;;
5127;SDS011;2582;48.770;9.190;2023-03-20T08:49:52;2.10;;;1.90;;
5127;SDS011;2582;48.770;9.190;2023-03-20T08:52:17;1.60;;;1.50;;
5127;SDS011;2582;48.770;9.190;2023-03-20T08:54:43;2.43;;;1.70;;
5127;SDS011;2582;48.770;9.190;2023-03-20T08:57:09;2.40;;;1.57;;
5127;SDS011;2582;48.770;9.190;2023-03-20T08:59:35;1.57;;;1.03;;
5127;SDS011;2582;48.770;9.190;2023-03-20T09:02:00;1.60;;;1.50;;
5127;SDS011;2582;48.770;9.190;2023-03-20T09:04:26;1.63;;;1.53;;
5127;SDS011;2582;48.770;9.190;2023-03-20T09:06:52;2.30;;;2.10;;
5127;SDS011;2582;48.770;9.190;2023-03-20T09:09:17;2.83;;;1.40;;
5127;SDS011;2582;48.770;9.190;2023-03-20T09:11:45;1.40;;;1.17;;
5127;SDS011;2582;48.770;9.190;2023-03-20T09:14:11;1.80;;;1.57;;
5127;SDS011;2582;48.770;9.190;2023-03-20T09:16:36;1.57;;;1.37;;
5127;SDS011;2582;48.770;9.190;2023-03-20T09:19:02;1.77;;;1.47;;
5127;SDS011;2582;48.770;9.190;2023-03-20T09:21:28;1.70;;;1.40;;
5127;SDS011;2582;48.770;9.190;2023-03-20T09:23:53;1.30;;;1.10;;
5127;SDS011;2582;48.770;9.190;2023-03-20T09:26:19;3.90;;;1.40;;
5127;SDS011;2582;48.770;9.190;2023-03-20T09:28:44;1.57;;;1.40;;
5127;SDS011;2582;48.770;9.190;2023-03-20T09:31:10;2.67;;;1.70;;
5127;SDS011;2582;48.770;9.190;2023-03-20T09:33:36;2.10;;;1.27;;
5127;SDS011;2582;48.770;9.190;2023-03-20T09:36:01;1.90;;;1.70;;
5127;SDS011;2582;48.770;9.190;2023-03-20T09:38:27;1.63;;;1.53;;
5127;SDS011;2582;48.770;9.190;2023-03-20T09:40:57;1.60;;;1.47;;
5127;SDS011;2582;48.770;9.190;2023-03-20T09:48:47;3.20;;;1.60;;
5127;SDS011;2582;48.770;9.190;2023-03-20T09:54:00;2.87;;;1.73;;
5127;SDS011;2582;48.770;9.190;2023-03-20T09:56:30;2.63;;;2.10;;
5127;SDS011;2582;48.770;9.190;2023-03-20T09:59:01;3.07;;;2.33;;
5127;SDS011;2582;48.770;9.190;2023-03-20T10:01:30;2.00;;;1.80;;
5127;SDS011;2582;48.770;9.190;2023-03-20T10:04:00;1.70;;;1.60;;
5127;SDS011;2582;48.770;9.190;2023-03-20T10:06:31;1.60;;;1.50;;
5127;SDS011;2582;48.770;9.190;2023-03-20T10:08:57;3.10;;;2.13;;
5127;SDS011;2582;48.770;9.190;2023-03-20T10:14:15;3.60;;;1.70;;
5127;SDS011;2582;48.770;9.190;2023-03-20T10:19:48;2.33;;;2.13;;
5127;SDS011;2582;48.770;9.190;2023-03-20T10:22:41;1.87;;;1.67;;
5127;SDS011;2582;48.770;9.190;2023-03-20T10:25:20;2.70;;;2.10;;
5127;SDS011;2582;48.770;9.190;2023-03-20T10:28:08;2.00;;;1.83;;
5127;SDS011;2582;48.770;9.190;2023-03-20T10:36:48;3.27;;;2.40;;
5127;SDS011;2582;48.770;9.190;2023-03-20T10:42:40;3.07;;;2.10;;
5127;SDS011;2582;48.770;9.190;2023-03-20T10:45:30;1.73;;;1.60;;
5127;SDS011;2582;48.770;9.190;2023-03-20T10:47:58;2.97;;;2.20;;
5127;SDS011;2582;48.770;9.190;2023-03-20T10:50:34;2.30;;;2.00;;
5127;SDS011;2582;48.770;9.190;2023-03-20T10:53:05;4.00;;;2.80;;
5127;SDS011;2582;48.770;9.190;2023-03-20T10:55:38;4.20;;;3.23;;
5127;SDS011;2582;48.770;9.190;2023-03-20T10:58:15;5.03;;;2.87;;
5127;SDS011;2582;48.770;9.190;2023-03-20T11:00:46;3.43;;;2.00;;
5127;SDS011;2582;48.770;9.190;2023-03-20T11:03:16;2.77;;;2.53;;
5127;SDS011;2582;48.770;9.190;2023-03-20T11:05:50;3.30;;;2.60;;
5127;SDS011;2582;48.770;9.190;2023-03-20T11:08:21;4.10;;;3.70;;
5127;SDS011;2582;48.770;9.190;2023-03-20T11:10:56;4.40;;;4.00;;
5127;SDS011;2582;48.770;9.190;2023-03-20T11:13:25;2.90;;;2.00;;
5127;SDS011;2582;48.770;9.190;2023-03-20T11:16:13;3.10;;;2.63;;
5127;SDS011;2582;48.770;9.190;2023-03-20T11:18:48;2.40;;;2.17;;
5127;SDS011;2582;48.770;9.190;2023-03-20T11:21:19;3.30;;;3.00;;
5127;SDS011;2582;48.770;9.190;2023-03-20T11:23:45;3.73;;;3.40;;
5127;SDS011;2582;48.770;9.190;2023-03-20T11:26:12;4.37;;;3.50;;
5127;SDS011;2582;48.770;9.190;2023-03-20T11:28:46;5.23;;;3.97;;
5127;SDS011;2582;48.770;9.190;2023-03-20T11:31:18;4.50;;;4.10;;
5127;SDS011;2582;48.770;9.190;2023-03-20T11:33:51;5.17;;;4.40;;
5127;SDS011;2582;48.770;9.190;2023-03-20T11:36:29;6.27;;;5.63;;
5127;SDS011;2582;48.770;9.190;2023-03-20T11:39:01;5.83;;;5.23;;
5127;SDS011;2582;48.770;9.190;2023-03-20T11:41:40;7.67;;;5.00;;
5127;SDS011;2582;48.770;9.190;2023-03-20T11:46:56;5.13;;;4.57;;
5127;SDS011;2582;48.770;9.190;2023-03-20T11:49:23;6.00;;;5.40;;
5127;SDS011;2582;48.770;9.190;2023-03-20T11:51:51;5.03;;;4.53;;
5127;SDS011;2582;48.770;9.190;2023-03-20T11:54:18;5.13;;;4.63;;
5127;SDS011;2582;48.770;9.190;2023-03-20T11:56:50;6.67;;;5.27;;
5127;SDS011;2582;48.770;9.190;2023-03-20T11:59:20;5.40;;;4.40;;
5127;SDS011;2582;48.770;9.190;2023-03-20T12:01:51;5.37;;;4.83;;
5127;SDS011;2582;48.770;9.190;2023-03-20T12:04:18;4.83;;;4.33;;
5127;SDS011;2582;48.770;9.190;2023-03-20T12:07:05;6.90;;;4.07;;
5127;SDS011;2582;48.770;9.190;2023-03-20T12:12:36;7.27;;;5.10;;
5127;SDS011;2582;48.770;9.190;2023-03-20T12:15:14;8.20;;;5.07;;
5127;SDS011;2582;48.770;9.190;2023-03-20T12:17:55;4.87;;;4.37;;
5127;SDS011;2582;48.770;9.190;2023-03-20T12:23:01;7.43;;;6.43;;
5127;SDS011;2582;48.770;9.190;2023-03-20T12:31:25;4.80;;;4.30;;
5127;SDS011;2582;48.770;9.190;2023-03-20T12:33:58;5.90;;;4.87;;
5127;SDS011;2582;48.770;9.190;2023-03-20T12:36:41;6.57;;;4.63;;
5127;SDS011;2582;48.770;9.190;2023-03-20T12:39:10;4.80;;;4.07;;
5127;SDS011;2582;48.770;9.190;2023-03-20T12:49:59;6.30;;;4.10;;
5127;SDS011;2582;48.770;9.190;2023-03-20T12:55:41;5.33;;;4.03;;
5127;SDS011;2582;48.770;9.190;2023-03-20T13:06:31;6.50;;;4.23;;
5127;SDS011;2582;48.770;9.190;2023-03-20T13:12:00;4.93;;;4.30;;
5127;SDS011;2582;48.770;9.190;2023-03-20T13:14:39;5.73;;;5.13;;
5127;SDS011;2582;48.770;9.190;2023-03-20T13:17:36;5.30;;;3.80;;
5127;SDS011;2582;48.770;9.190;2023-03-20T13:20:14;4.70;;;4.30;;
5127;SDS011;2582;48.770;9.190;2023-03-20T13:39:41;5.47;;;4.90;;
5127;SDS011;2582;48.770;9.190;2023-03-20T13:42:16;6.47;;;4.53;;
5127;SDS011;2582;48.770;9.190;2023-03-20T13:44:43;5.23;;;4.40;;
5127;SDS011;2582;48.770;9.190;2023-03-20T13:47:17;5.43;;;4.40;;
5127;SDS011;2582;48.770;9.190;2023-03-20T13:58:37;5.50;;;5.00;;
5127;SDS011;2582;48.770;9.190;2023-03-20T14:01:27;4.27;;;3.60;;
5127;SDS011;2582;48.770;9.190;2023-03-20T14:04:02;7.57;;;5.00;;
5127;SDS011;2582;48.770;9.190;2023-03-20T14:08:55;5.20;;;3.80;;
5127;SDS011;2582;48.770;9.190;2023-03-20T14:13:54;4.03;;;3.63;;
5127;SDS011;2582;48.770;9.190;2023-03-20T14:16:22;4.70;;;3.60;;
5127;SDS011;2582;48.770;9.190;2023-03-20T14:19:06;5.10;;;3.67;;
5127;SDS011;2582;48.770;9.190;2023-03-20T14:21:48;5.53;;;3.93;;
5127;SDS011;2582;48.770;9.190;2023-03-20T14:24:18;4.07;;;3.07;;
5127;SDS011;2582;48.770;9.190;2023-03-20T14:27:02;3.60;;;3.30;;
5127;SDS011;2582;48.770;9.190;2023-03-20T14:29:34;4.17;;;3.77;;
5127;SDS011;2582;48.770;9.190;2023-03-20T14:32:02;6.93;;;4.20;;
5127;SDS011;2582;48.770;9.190;2023-03-20T14:34:30;3.90;;;3.60;;
5127;SDS011;2582;48.770;9.190;2023-03-20T14:37:25;3.33;;;3.03;;
5127;SDS011;2582;48.770;9.190;2023-03-20T14:39:58;4.70;;;3.53;;
5127;SDS011;2582;48.770;9.190;2023-03-20T14:42:34;5.43;;;3.60;;
5127;SDS011;2582;48.770;9.190;2023-03-20T14:45:06;2.97;;;2.67;;
5127;SDS011;2582;48.770;9.190;2023-03-20T14:57:44;3.83;;;3.50;;
5127;SDS011;2582;48.770;9.190;2023-03-20T15:02:50;3.47;;;3.17;;
5127;SDS011;2582;48.770;9.190;2023-03-20T15:05:20;4.87;;;3.63;;
5127;SDS011;2582;48.770;9.190;2023-03-20T15:08:01;4.17;;;3.30;;
5127;SDS011;2582;48.770;9.190;2023-03-20T15:10:30;4.57;;;3.90;;
5127;SDS011;2582;48.770;9.190;2023-03-20T15:13:01;4.33;;;3.23;;
5127;SDS011;2582;48.770;9.190;2023-03-20T15:15:31;3.67;;;3.20;;
5127;SDS011;2582;48.770;9.190;2023-03-20T15:18:09;5.50;;;3.10;;
5127;SDS011;2582;48.770;9.190;2023-03-20T15:20:37;5.33;;;3.70;;
5127;SDS011;2582;48.770;9.190;2023-03-20T15:23:02;4.03;;;3.33;;
5127;SDS011;2582;48.770;9.190;2023-03-20T15:25:39;4.00;;;3.60;;
5127;SDS011;2582;48.770;9.190;2023-03-20T15:28:18;3.77;;;3.10;;
5127;SDS011;2582;48.770;9.190;2023-03-20T15:30:48;3.40;;;3.10;;
5127;SDS011;2582;48.770;9.190;2023-03-20T15:33:33;3.40;;;3.10;;
5127;SDS011;2582;48.770;9.190;2023-03-20T15:36:12;2.90;;;2.70;;
5127;SDS011;2582;48.770;9.190;2023-03-20T15:38:41;2.90;;;2.60;;
5127;SDS011;2582;48.770;9.190;2023-03-20T15:41:22;3.67;;;2.87;;
5127;SDS011;2582;48.770;9.190;2023-03-20T15:43:52;3.47;;;2.50;;
5127;SDS011;2582;48.770;9.190;2023-03-20T15:46:25;3.47;;;2.63;;
5127;SDS011;2582;48.770;9.190;2023-03-20T15:48:51;4.40;;;3.20;;
5127;SDS011;2582;48.770;9.190;2023-03-20T15:51:17;2.53;;;2.33;;
5127;SDS011;2582;48.770;9.190;2023-03-20T15:53:46;3.33;;;2.67;;
5127;SDS011;2582;48.770;9.190;2023-03-20T15:56:16;3.83;;;2.50;;
5127;SDS011;2582;48.770;9.190;2023-03-20T15:58:43;3.17;;;2.37;;
5127;SDS011;2582;48.770;9.190;2023-03-20T16:01:14;2.83;;;2.23;;
5127;SDS011;2582;48.770;9.190;2023-03-20T16:03:41;7.17;;;4.80;;
5127;SDS011;2582;48.770;9.190;2023-03-20T16:06:08;13.07;;;10.50;;
5127;SDS011;2582;48.770;9.190;2023-03-20T16:08:36;3.70;;;3.33;;
5127;SDS011;2582;48.770;9.190;2023-03-20T16:11:08;2.57;;;1.97;;
5127;SDS011;2582;48.770;9.190;2023-03-20T16:13:42;2.53;;;1.47;;
5127;SDS011;2582;48.770;9.190;2023-03-20T16:16:20;1.90;;;1.60;;
5127;SDS011;2582;48.770;9.190;2023-03-20T16:18:47;1.63;;;1.30;;
5127;SDS011;2582;48.770;9.190;2023-03-20T16:23:44;1.30;;;1.00;;
5127;SDS011;2582;48.770;9.190;2023-03-20T16:26:16;1.30;;;1.20;;
5127;SDS011;2582;48.770;9.190;2023-03-20T16:28:51;1.83;;;1.40;;
5127;SDS011;2582;48.770;9.190;2023-03-20T16:31:21;2.40;;;1.17;;
5127;SDS011;2582;48.770;9.190;2023-03-20T16:33:58;2.17;;;1.50;;
5127;SDS011;2582;48.770;9.190;2023-03-20T16:36:32;1.73;;;1.30;;
5127;SDS011;2582;48.770;9.190;2023-03-20T16:41:37;2.47;;;1.50;;
5127;SDS011;2582;48.770;9.190;2023-03-20T16:44:09;2.47;;;1.53;;
5127;SDS011;2582;48.770;9.190;2023-03-20T16:46:59;1.40;;;1.30;;
5127;SDS011;2582;48.770;9.190;2023-03-20T16:52:22;1.27;;;1.07;;
5127;SDS011;2582;48.770;9.190;2023-03-20T16:54:51;2.93;;;1.60;;
5127;SDS011;2582;48.770;9.190;2023-03-20T16:57:20;1.73;;;1.40;;
5127;SDS011;2582;48.770;9.190;2023-03-20T16:59:45;1.77;;;1.67;;
5127;SDS011;2582;48.770;9.190;2023-03-20T17:02:19;3.07;;;1.77;;
5127;SDS011;2582;48.770;9.190;2023-03-20T17:04:51;1.80;;;1.70;;
5127;SDS011;2582;48.770;9.190;2023-03-20T17:07:19;1.70;;;1.40;;
5127;SDS011;2582;48.770;9.190;2023-03-20T17:09:56;2.60;;;1.60;;
5127;SDS011;2582;48.770;9.190;2023-03-20T17:12:24;2.03;;;1.20;;
5127;SDS011;2582;48.770;9.190;2023-03-20T17:14:51;3.83;;;1.80;;
5127;SDS011;2582;48.770;9.190;2023-03-20T17:17:20;2.60;;;1.60;;
5127;SDS011;2582;48.770;9.190;2023-03-20T17:19:48;1.63;;;1.53;;
5127;SDS011;2582;48.770;9.190;2023-03-20T17:22:16;1.70;;;1.60;;
5127;SDS011;2582;48.770;9.190;2023-03-20T17:24:43;3.97;;;1.53;;
5127;SDS011;2582;48.770;9.190;2023-03-20T17:27:12;2.40;;;1.90;;
5127;SDS011;2582;48.770;9.190;2023-03-20T17:29:39;2.57;;;2.20;;
5127;SDS011;2582;48.770;9.190;2023-03-20T17:32:12;2.93;;;2.63;;
5127;SDS011;2582;48.770;9.190;2023-03-20T17:34:41;3.30;;;2.90;;
5127;SDS011;2582;48.770;9.190;2023-03-20T17:37:10;5.80;;;3.27;;
5127;SDS011;2582;48.770;9.190;2023-03-20T17:39:38;2.70;;;2.23;;
5127;SDS011;2582;48.770;9.190;2023-03-20T17:42:17;2.23;;;2.03;;
5127;SDS011;2582;48.770;9.190;2023-03-20T17:44:50;1.87;;;1.67;;
5127;SDS011;2582;48.770;9.190;2023-03-20T17:47:17;3.40;;;1.60;;
5127;SDS011;2582;48.770;9.190;2023-03-20T17:49:45;2.47;;;1.73;;
5127;SDS011;2582;48.770;9.190;2023-03-20T17:52:15;2.77;;;2.20;;
5127;SDS011;2582;48.770;9.190;2023-03-20T17:54:43;4.97;;;3.70;;
5127;SDS011;2582;48.770;9.190;2023-03-20T17:57:17;3.87;;;3.57;;
5127;SDS011;2582;48.770;9.190;2023-03-20T18:00:19;2.77;;;2.40;;
5127;SDS011;2582;48.770;9.190;2023-03-20T18:02:47;4.80;;;3.90;;
5127;SDS011;2582;48.770;9.190;2023-03-20T18:05:12;2.83;;;2.30;;
5127;SDS011;2582;48.770;9.190;2023-03-20T18:07:38;2.53;;;2.20;;
5127;SDS011;2582;48.770;9.190;2023-03-20T18:10:04;3.00;;;2.50;;
5127;SDS011;2582;48.770;9.190;2023-03-20T18:12:30;2.70;;;2.50;;